createdAt,value
2023-03-13T00:00:43.999Z,78.49
2023-03-13T00:01:48.403Z,78.54
2023-03-13T00:02:51.428Z,78.29
2023-03-13T00:03:54.959Z,78.98
2023-03-13T00:04:57.508Z,78.85
2023-03-13T00:06:00.317Z,78.64
2023-03-13T00:07:04.925Z,78.92
2023-03-13T00:08:07.382Z,79.67
2023-03-13T00:09:12.365Z,80.24
2023-03-13T00:10:15.203Z,80.51
2023-03-13T00:11:17.553Z,80.48
2023-03-13T00:12:20.326Z,80.35
2023-03-13T00:13:22.926Z,80.20
2023-03-13T00:14:25.297Z,79.22
2023-03-13T00:15:27.624Z,79.32
2023-03-13T00:16:30.679Z,79.21
2023-03-13T00:17:34.645Z,79.21
2023-03-13T00:18:37.824Z,79.62
2023-03-13T00:19:40.224Z,80.33
2023-03-13T00:20:42.898Z,79.46
2023-03-13T00:21:45.142Z,80.13
2023-03-13T00:22:47.641Z,80.68
2023-03-13T00:23:51.101Z,80.34
2023-03-13T00:24:53.422Z,80.56
2023-03-13T00:26:00.786Z,79.99
2023-03-13T00:27:05.381Z,80.22
2023-03-13T00:28:07.833Z,80.89
2023-03-13T00:29:10.247Z,80.86
2023-03-13T00:30:14.478Z,80.13
2023-03-13T00:31:20.577Z,80.13
2023-03-13T00:32:25.059Z,80.75
2023-03-13T00:33:27.767Z,79.62
2023-03-13T00:34:30.598Z,79.34
2023-03-13T00:35:34.629Z,78.97
2023-03-13T00:36:37.333Z,79.88
2023-03-13T00:37:39.674Z,80.43
2023-03-13T00:38:41.945Z,79.41
2023-03-13T00:39:44.513Z,78.97
2023-03-13T00:40:47.096Z,79.21
2023-03-13T00:41:50.240Z,79.63
2023-03-13T00:42:53.536Z,79.75
2023-03-13T00:43:56.248Z,79.44
2023-03-13T00:44:58.478Z,79.28
2023-03-13T00:46:02.664Z,79.69
2023-03-13T00:47:06.484Z,79.86
2023-03-13T00:48:08.988Z,79.55
2023-03-13T00:49:11.209Z,78.48
2023-03-13T00:50:15.058Z,79.62
2023-03-13T00:51:19.482Z,79.33
2023-03-13T00:52:24.426Z,78.48
2023-03-13T00:53:27.524Z,79.31
2023-03-13T00:54:30.039Z,79.23
2023-03-13T00:55:32.551Z,79.15
2023-03-13T00:56:35.019Z,79.48
2023-03-13T00:57:38.026Z,79.93
2023-03-13T00:58:43.363Z,80.06
2023-03-13T00:59:45.725Z,79.36
2023-03-13T01:00:50.531Z,79.33
2023-03-13T01:01:52.996Z,80.12
2023-03-13T01:02:59.069Z,80.62
2023-03-13T01:05:15.563Z,79.70
2023-03-13T01:06:20.952Z,79.82
2023-03-13T01:07:23.254Z,78.82
2023-03-13T01:08:27.435Z,79.31
2023-03-13T01:09:30.105Z,78.50
2023-03-13T01:10:32.438Z,78.96
2023-03-13T01:11:38.188Z,79.62
2023-03-13T01:12:41.575Z,79.95
2023-03-13T01:13:44.294Z,80.37
2023-03-13T01:14:49.466Z,80.94
2023-03-13T01:15:51.637Z,79.46
2023-03-13T01:16:53.923Z,80.26
2023-03-13T01:17:56.803Z,80.62
2023-03-13T01:19:02.209Z,79.50
2023-03-13T01:20:08.264Z,79.95
2023-03-13T01:21:12.756Z,79.08
2023-03-13T01:22:15.629Z,79.75
2023-03-13T01:23:18.050Z,78.54
2023-03-13T01:24:20.607Z,78.39
2023-03-13T01:25:23.765Z,79.37
2023-03-13T01:26:27.390Z,78.31
2023-03-13T01:27:31.987Z,79.28
2023-03-13T01:28:35.333Z,79.72
2023-03-13T01:29:38.892Z,79.62
2023-03-13T01:30:41.386Z,78.64
2023-03-13T01:31:45.020Z,78.70
2023-03-13T01:32:47.296Z,79.12
2023-03-13T01:33:53.129Z,78.26
2023-03-13T01:34:55.509Z,78.74
2023-03-13T01:36:03.883Z,78.33
2023-03-13T01:37:06.177Z,79.64
2023-03-13T01:38:08.710Z,79.16
2023-03-13T01:39:11.052Z,77.60
2023-03-13T01:40:13.520Z,77.01
2023-03-13T01:41:16.469Z,77.55
2023-03-13T01:42:19.297Z,76.95
2023-03-13T01:43:26.873Z,76.89
2023-03-13T01:44:28.510Z,76.63
2023-03-13T01:46:01.336Z,76.21
2023-03-13T01:47:06.330Z,76.86
2023-03-13T01:48:10.578Z,76.29
2023-03-13T01:49:32.480Z,76.78
2023-03-13T01:50:43.009Z,76.74
2023-03-13T01:51:56.833Z,77.09
2023-03-13T01:52:59.234Z,76.07
2023-03-13T01:54:30.955Z,75.76
2023-03-13T01:55:34.018Z,76.27
2023-03-13T01:56:43.093Z,75.84
2023-03-13T01:57:50.201Z,74.79
2023-03-13T01:58:53.525Z,75.95
2023-03-13T02:00:03.062Z,76.87
2023-03-13T02:01:08.263Z,76.29
2023-03-13T02:02:14.917Z,75.64
2023-03-13T02:03:20.455Z,76.24
2023-03-13T02:04:24.369Z,75.30
2023-03-13T02:05:30.522Z,74.92
2023-03-13T02:06:36.577Z,74.30
2023-03-13T02:07:43.045Z,74.21
2023-03-13T02:08:52.298Z,74.61
2023-03-13T02:09:56.607Z,73.80
2023-03-13T02:12:16.002Z,72.69
2023-03-13T02:13:20.267Z,73.10
2023-03-13T02:14:26.140Z,73.34
2023-03-13T02:15:30.994Z,73.08
2023-03-13T02:16:35.851Z,73.58
2023-03-13T02:17:41.652Z,73.98
2023-03-13T02:18:44.804Z,73.37
2023-03-13T02:19:54.106Z,73.06
2023-03-13T02:21:00.531Z,71.87
2023-03-13T02:22:23.332Z,72.66
2023-03-13T02:23:29.390Z,71.71
2023-03-13T02:24:43.337Z,73.02
2023-03-13T02:33:32.500Z,72.25
2023-03-13T02:34:38.995Z,71.67
2023-03-13T02:35:44.791Z,69.06
2023-03-13T02:36:48.752Z,69.15
2023-03-13T02:37:54.881Z,70.44
2023-03-13T02:39:01.372Z,70.33
2023-03-13T02:40:09.910Z,70.97
2023-03-13T02:41:14.243Z,69.90
2023-03-13T02:42:20.599Z,69.15
2023-03-13T02:43:32.197Z,69.15
2023-03-13T02:44:40.192Z,69.31
2023-03-13T02:45:42.825Z,70.80
2023-03-13T02:46:49.709Z,70.76
2023-03-13T02:47:52.674Z,70.27
2023-03-13T02:48:57.957Z,70.86
2023-03-13T02:50:01.746Z,69.46
2023-03-13T02:51:07.999Z,70.93
2023-03-13T02:52:14.477Z,68.74
2023-03-13T02:53:17.941Z,71.03
2023-03-13T02:54:24.039Z,71.36
2023-03-13T02:55:29.685Z,72.54
2023-03-13T02:56:35.623Z,72.05
2023-03-13T02:57:39.197Z,71.53
2023-03-13T02:58:51.657Z,70.69
2023-03-13T02:59:48.751Z,71.01
2023-03-13T03:00:52.971Z,71.96
2023-03-13T03:01:56.506Z,72.42
2023-03-13T03:02:58.783Z,72.77
2023-03-13T03:04:01.155Z,72.21
2023-03-13T03:05:03.947Z,71.06
2023-03-13T03:06:07.667Z,71.95
2023-03-13T03:07:10.690Z,70.19
2023-03-13T03:08:13.445Z,70.08
2023-03-13T03:09:16.170Z,70.08
2023-03-13T03:10:19.208Z,70.77
2023-03-13T03:11:21.700Z,71.55
2023-03-13T03:12:25.905Z,69.64
2023-03-13T03:13:28.559Z,69.05
2023-03-13T03:14:31.338Z,70.18
2023-03-13T03:15:33.656Z,69.57
2023-03-13T03:17:40.391Z,69.04
2023-03-13T03:18:42.535Z,69.75
2023-03-13T03:28:11.968Z,72.96
2023-03-13T03:31:22.018Z,73.82
2023-03-13T03:32:25.417Z,74.83
2023-03-13T03:33:29.056Z,74.49
2023-03-13T03:37:41.506Z,72.81
2023-03-13T03:40:49.486Z,70.76
2023-03-13T03:41:52.049Z,72.03
2023-03-13T03:42:54.523Z,72.89
2023-03-13T03:43:57.069Z,72.26
2023-03-13T03:45:01.635Z,71.92
2023-03-13T03:46:04.602Z,71.76
2023-03-13T03:47:07.205Z,72.54
2023-03-13T03:48:11.330Z,71.87
2023-03-13T03:49:13.604Z,70.53
2023-03-13T03:50:17.818Z,69.87
2023-03-13T03:51:22.620Z,69.25
2023-03-13T03:52:25.382Z,69.46
2023-03-13T03:53:29.355Z,69.18
2023-03-13T03:54:32.185Z,69.04
2023-03-13T03:55:35.221Z,68.72
2023-03-13T03:56:38.067Z,68.69
2023-03-13T03:57:40.718Z,69.00
2023-03-13T03:58:45.003Z,69.02
2023-03-13T03:59:55.542Z,69.50
2023-03-13T04:00:58.726Z,69.71
2023-03-13T04:02:01.831Z,70.51
2023-03-13T04:03:05.413Z,70.28
2023-03-13T04:04:08.159Z,69.99
2023-03-13T04:05:11.050Z,69.97
2023-03-13T04:06:15.173Z,69.92
2023-03-13T04:07:18.577Z,70.19
2023-03-13T04:08:21.263Z,70.40
2023-03-13T04:09:24.065Z,71.34
2023-03-13T04:10:28.312Z,70.90
2023-03-13T04:11:30.972Z,70.93
2023-03-13T04:12:33.858Z,70.84
2023-03-13T04:13:36.087Z,70.75
2023-03-13T04:14:39.182Z,70.98
2023-03-13T04:15:43.769Z,70.97
2023-03-13T04:16:46.925Z,71.32
2023-03-13T04:17:50.393Z,71.65
2023-03-13T04:18:54.663Z,71.96
2023-03-13T04:19:57.319Z,71.93
2023-03-13T04:21:01.912Z,72.85
2023-03-13T04:22:05.751Z,73.24
2023-03-13T04:23:08.138Z,73.48
2023-03-13T04:24:10.761Z,72.78
2023-03-13T04:25:15.369Z,71.93
2023-03-13T04:26:18.347Z,72.13
2023-03-13T04:27:21.353Z,72.11
2023-03-13T04:28:24.745Z,72.20
2023-03-13T04:29:27.583Z,72.73
2023-03-13T04:30:37.808Z,72.91
2023-03-13T04:31:47.929Z,73.68
2023-03-13T04:33:01.984Z,72.35
2023-03-13T04:35:33.222Z,74.18
2023-03-13T04:36:38.205Z,73.79
2023-03-13T04:38:02.342Z,73.84
2023-03-13T04:39:07.077Z,74.88
2023-03-13T04:40:13.202Z,75.35
2023-03-13T04:41:32.606Z,74.02
2023-03-13T04:43:57.059Z,75.71
2023-03-13T04:45:17.956Z,75.98
2023-03-13T04:46:35.171Z,76.56
2023-03-13T04:47:42.502Z,76.12
2023-03-13T04:49:03.335Z,76.29
2023-03-13T04:50:08.168Z,76.18
2023-03-13T04:51:15.254Z,77.28
2023-03-13T04:52:29.229Z,77.98
2023-03-13T04:53:43.442Z,77.69
2023-03-13T04:55:06.643Z,78.02
2023-03-13T04:56:42.219Z,77.98
2023-03-13T04:57:33.351Z,78.04
2023-03-13T04:58:40.292Z,78.94
2023-03-13T04:59:47.656Z,78.55
2023-03-13T05:00:53.325Z,78.81
2023-03-13T05:02:14.308Z,78.64
2023-03-13T05:03:18.585Z,78.77
2023-03-13T05:04:25.491Z,79.92
2023-03-13T05:05:35.806Z,80.33
2023-03-13T05:06:59.821Z,79.70
2023-03-13T05:08:05.393Z,79.03
2023-03-13T05:09:18.789Z,79.14
2023-03-13T05:10:28.774Z,79.22
2023-03-13T05:11:40.155Z,79.07
2023-03-13T05:12:44.901Z,79.20
2023-03-13T05:13:49.166Z,78.83
2023-03-13T05:14:53.545Z,78.85
2023-03-13T05:16:14.629Z,78.88
2023-03-13T05:17:35.385Z,79.26
2023-03-13T05:18:39.880Z,79.11
2023-03-13T05:19:47.488Z,79.11
2023-03-13T05:21:02.246Z,79.38
2023-03-13T05:22:06.442Z,79.90
2023-03-13T05:23:22.410Z,80.29
2023-03-13T05:24:43.033Z,79.67
2023-03-13T05:25:53.275Z,79.45
2023-03-13T05:27:14.354Z,79.27
2023-03-13T05:28:18.597Z,79.62
2023-03-13T05:29:40.090Z,79.36
2023-03-13T05:30:45.399Z,79.19
2023-03-13T05:31:49.513Z,79.46
2023-03-13T05:32:59.596Z,79.37
2023-03-13T05:34:13.217Z,79.14
2023-03-13T05:35:19.469Z,79.58
2023-03-13T05:36:24.068Z,80.03
2023-03-13T05:37:31.645Z,80.10
2023-03-13T05:39:49.381Z,80.36
2023-03-13T05:41:08.428Z,80.79
2023-03-13T05:42:13.069Z,80.92
2023-03-13T05:43:20.420Z,80.50
2023-03-13T05:45:38.110Z,80.62
2023-03-13T05:46:51.048Z,80.42
2023-03-13T05:48:04.925Z,80.22
2023-03-13T05:49:25.538Z,80.49
2023-03-13T05:50:48.723Z,80.25
2023-03-13T05:51:59.004Z,80.18
2023-03-13T05:53:19.851Z,80.00
2023-03-13T05:54:30.521Z,79.27
2023-03-13T05:55:51.409Z,79.41
2023-03-13T05:57:17.657Z,80.31
2023-03-13T05:58:27.703Z,80.17
2023-03-13T05:59:48.641Z,79.37
2023-03-13T06:01:12.411Z,78.66
2023-03-13T06:02:21.203Z,78.39
2023-03-13T06:03:23.688Z,78.16
2023-03-13T06:04:29.831Z,77.99
2023-03-13T06:05:33.578Z,77.64
2023-03-13T06:06:37.241Z,77.35
2023-03-13T06:07:41.636Z,77.42
2023-03-13T06:08:45.103Z,77.22
2023-03-13T06:09:47.677Z,76.49
2023-03-13T06:10:50.259Z,76.49
2023-03-13T06:11:53.016Z,76.77
2023-03-13T06:12:55.989Z,76.56
2023-03-13T06:14:00.183Z,76.14
2023-03-13T06:15:06.722Z,76.10
2023-03-13T06:16:11.394Z,76.31
2023-03-13T06:17:21.371Z,75.95
2023-03-13T06:18:24.838Z,75.59
2023-03-13T06:19:27.288Z,76.24
2023-03-13T06:20:30.070Z,75.98
2023-03-13T06:21:32.321Z,75.63
2023-03-13T06:22:34.808Z,75.79
2023-03-13T06:23:38.106Z,75.33
2023-03-13T06:24:41.069Z,74.95
2023-03-13T06:25:46.964Z,74.93
2023-03-13T06:26:50.593Z,74.76
2023-03-13T06:27:52.963Z,74.66
2023-03-13T06:28:55.414Z,74.51
2023-03-13T06:29:57.626Z,74.50
2023-03-13T06:31:07.142Z,73.95
2023-03-13T06:32:09.924Z,73.44
2023-03-13T06:33:14.029Z,73.74
2023-03-13T06:34:17.044Z,73.93
2023-03-13T06:35:19.417Z,73.20
2023-03-13T06:36:23.863Z,73.87
2023-03-13T06:37:26.171Z,73.71
2023-03-13T06:38:29.614Z,73.54
2023-03-13T06:39:31.942Z,73.28
2023-03-13T06:40:36.611Z,73.12
2023-03-13T06:41:39.030Z,73.58
2023-03-13T06:42:41.381Z,73.42
2023-03-13T06:43:43.900Z,72.85
2023-03-13T06:44:46.284Z,72.21
2023-03-13T06:45:48.727Z,72.02
2023-03-13T06:46:51.019Z,72.21
2023-03-13T06:47:53.526Z,71.64
2023-03-13T06:48:56.906Z,71.58
2023-03-13T06:50:01.420Z,71.77
2023-03-13T06:51:05.232Z,72.10
2023-03-13T06:52:07.999Z,71.98
2023-03-13T06:53:19.426Z,71.64
2023-03-13T06:54:45.298Z,71.62
2023-03-13T06:55:49.450Z,71.33
2023-03-13T06:56:52.260Z,71.46
2023-03-13T06:57:54.771Z,71.56
2023-03-13T06:58:59.536Z,70.83
2023-03-13T07:00:01.986Z,71.09
2023-03-13T07:01:10.068Z,71.09
2023-03-13T07:02:12.862Z,70.74
2023-03-13T07:03:15.245Z,71.04
2023-03-13T07:04:18.369Z,71.15
2023-03-13T07:05:21.098Z,71.11
2023-03-13T07:06:24.383Z,71.53
2023-03-13T07:07:32.222Z,71.08
2023-03-13T07:08:34.589Z,70.64
2023-03-13T07:09:37.290Z,71.08
2023-03-13T07:10:42.880Z,70.92
2023-03-13T07:11:45.778Z,71.51
2023-03-13T07:12:48.470Z,71.50
2023-03-13T07:13:53.935Z,70.91
2023-03-13T07:14:57.943Z,70.68
2023-03-13T07:16:05.046Z,69.67
2023-03-13T07:17:07.566Z,70.02
2023-03-13T07:18:10.080Z,70.77
2023-03-13T07:19:12.868Z,70.56
2023-03-13T07:20:17.652Z,70.20
2023-03-13T07:21:20.162Z,70.44
2023-03-13T07:22:23.062Z,70.84
2023-03-13T07:23:28.519Z,70.75
2023-03-13T07:24:31.730Z,70.56
2023-03-13T07:25:34.941Z,70.31
2023-03-13T07:26:38.007Z,70.31
2023-03-13T07:27:40.504Z,70.02
2023-03-13T07:28:43.380Z,69.86
2023-03-13T07:29:45.739Z,69.76
2023-03-13T07:30:50.119Z,70.12
2023-03-13T07:31:52.782Z,70.54
2023-03-13T07:32:55.758Z,70.40
2023-03-13T07:33:58.156Z,70.33
2023-03-13T07:35:00.307Z,70.22
2023-03-13T07:36:03.905Z,70.61
2023-03-13T07:37:07.606Z,70.30
2023-03-13T07:38:10.973Z,70.16
2023-03-13T07:39:13.530Z,70.16
2023-03-13T07:40:17.528Z,70.07
2023-03-13T07:41:20.913Z,70.30
2023-03-13T07:42:23.377Z,70.51
2023-03-13T07:43:30.106Z,70.15
2023-03-13T07:44:34.129Z,70.12
2023-03-13T07:45:36.730Z,69.62
2023-03-13T07:46:38.892Z,69.69
2023-03-13T07:47:41.526Z,68.78
2023-03-13T07:48:45.449Z,68.90
2023-03-13T07:49:48.191Z,69.14
2023-03-13T07:50:50.853Z,69.56
2023-03-13T07:51:53.085Z,69.02
2023-03-13T07:52:56.311Z,68.82
2023-03-13T07:53:58.783Z,68.51
2023-03-13T07:55:01.546Z,68.82
2023-03-13T07:56:08.051Z,68.29
2023-03-13T07:57:11.339Z,67.79
2023-03-13T07:58:14.139Z,67.16
2023-03-13T07:59:16.417Z,67.22
2023-03-13T08:00:20.480Z,67.34
2023-03-13T08:01:30.509Z,67.32
2023-03-13T08:02:34.450Z,67.93
2023-03-13T08:03:37.717Z,67.21
2023-03-13T08:04:40.382Z,67.14
2023-03-13T08:05:42.914Z,66.46
2023-03-13T08:06:45.396Z,65.87
2023-03-13T08:07:47.743Z,65.12
2023-03-13T08:08:50.889Z,64.69
2023-03-13T08:09:53.276Z,64.55
2023-03-13T08:11:07.709Z,63.20
2023-03-13T08:12:10.285Z,63.13
2023-03-13T08:13:12.792Z,62.37
2023-03-13T08:14:15.735Z,62.29
2023-03-13T08:15:20.975Z,62.37
2023-03-13T08:17:38.168Z,62.75
2023-03-13T08:18:43.155Z,62.97
2023-03-13T08:19:45.436Z,63.27
2023-03-13T08:20:47.901Z,64.16
2023-03-13T08:21:50.643Z,62.86
2023-03-13T08:22:56.193Z,63.13
2023-03-13T08:24:01.893Z,63.43
2023-03-13T08:25:04.924Z,63.13
2023-03-13T08:26:13.346Z,63.36
2023-03-13T08:27:15.730Z,62.28
2023-03-13T08:28:19.799Z,61.58
2023-03-13T08:29:21.926Z,61.66
2023-03-13T08:30:24.153Z,62.51
2023-03-13T08:31:29.253Z,62.29
2023-03-13T08:32:38.024Z,62.25
2023-03-13T08:33:42.829Z,61.90
2023-03-13T08:34:45.410Z,61.86
2023-03-13T08:35:48.013Z,61.19
2023-03-13T08:36:52.245Z,61.60
2023-03-13T08:37:54.618Z,61.97
2023-03-13T08:39:01.380Z,62.13
2023-03-13T08:40:06.335Z,61.92
2023-03-13T08:41:09.443Z,61.73
2023-03-13T08:42:13.832Z,62.03
2023-03-13T08:43:16.388Z,61.42
2023-03-13T08:44:20.147Z,61.46
2023-03-13T08:45:22.481Z,61.77
2023-03-13T08:46:25.636Z,62.12
2023-03-13T08:47:27.896Z,61.94
2023-03-13T08:48:30.214Z,60.91
2023-03-13T08:49:32.630Z,60.98
2023-03-13T08:50:35.727Z,60.74
2023-03-13T08:51:39.927Z,59.92
2023-03-13T08:52:44.491Z,59.96
2023-03-13T08:53:47.417Z,59.70
2023-03-13T08:54:49.756Z,59.58
2023-03-13T08:55:55.208Z,59.84
2023-03-13T08:56:59.226Z,60.09
2023-03-13T08:58:01.670Z,60.68
2023-03-13T08:59:05.026Z,60.70
2023-03-13T09:00:10.768Z,60.66
2023-03-13T09:01:14.779Z,60.56
2023-03-13T09:02:18.941Z,60.36
2023-03-13T09:03:21.388Z,61.31
2023-03-13T09:04:23.785Z,60.48
2023-03-13T09:05:26.043Z,60.28
2023-03-13T09:06:28.295Z,60.73
2023-03-13T09:07:31.626Z,60.66
2023-03-13T09:08:34.907Z,60.02
2023-03-13T09:09:37.105Z,60.51
2023-03-13T09:10:39.808Z,60.71
2023-03-13T09:11:42.184Z,60.60
2023-03-13T09:12:46.417Z,60.18
2023-03-13T09:13:51.168Z,60.21
2023-03-13T09:14:53.600Z,59.66
2023-03-13T09:16:05.768Z,60.17
2023-03-13T09:17:08.198Z,58.94
2023-03-13T09:18:10.982Z,58.64
2023-03-13T09:19:13.996Z,57.50
2023-03-13T09:20:18.452Z,56.91
2023-03-13T09:21:23.704Z,57.89
2023-03-13T09:22:25.968Z,58.50
2023-03-13T09:23:28.325Z,58.01
2023-03-13T09:24:30.974Z,58.39
2023-03-13T09:25:33.224Z,57.60
2023-03-13T09:26:35.825Z,57.64
2023-03-13T09:27:38.281Z,57.60
2023-03-13T09:28:42.821Z,57.53
2023-03-13T09:29:46.114Z,57.11
2023-03-13T09:30:51.007Z,56.99
2023-03-13T09:31:53.463Z,61.56
2023-03-13T09:32:55.637Z,63.53
2023-03-13T09:33:59.048Z,63.05
2023-03-13T09:35:01.550Z,60.22
2023-03-13T09:36:05.006Z,61.76
2023-03-13T09:37:09.347Z,60.64
2023-03-13T09:38:11.631Z,58.95
2023-03-13T09:39:14.269Z,59.04
2023-03-13T09:40:20.361Z,61.89
2023-03-13T09:41:32.883Z,59.40
2023-03-13T09:42:44.839Z,62.62
2023-03-13T09:43:57.074Z,55.76
2023-03-13T09:45:07.248Z,60.23
2023-03-13T09:46:18.024Z,63.26
2023-03-13T09:47:30.179Z,53.74
2023-03-13T09:48:36.393Z,55.32
2023-03-13T09:49:57.822Z,55.04
2023-03-13T09:51:07.971Z,55.19
2023-03-13T09:52:25.776Z,52.93
2023-03-13T09:53:43.808Z,53.21
2023-03-13T09:54:55.358Z,57.78
2023-03-13T09:55:58.156Z,59.96
2023-03-13T09:57:10.068Z,52.37
2023-03-13T09:58:19.421Z,60.14
2023-03-13T09:59:31.380Z,57.49
2023-03-13T10:00:43.632Z,58.49
2023-03-13T10:01:50.108Z,50.70
2023-03-13T10:03:06.515Z,51.33
2023-03-13T10:04:30.939Z,53.88
2023-03-13T10:05:34.744Z,53.22
2023-03-13T10:06:43.931Z,54.54
2023-03-13T10:07:46.592Z,53.79
2023-03-13T10:08:49.387Z,51.36
2023-03-13T10:09:53.276Z,56.40
2023-03-13T10:10:59.350Z,57.79
2023-03-13T10:12:17.241Z,55.51
2023-03-13T10:13:41.606Z,59.78
2023-03-13T10:14:54.635Z,58.98
2023-03-13T10:16:03.180Z,55.96
2023-03-13T10:17:18.002Z,59.39
2023-03-13T10:18:22.724Z,55.83
2023-03-13T10:19:34.692Z,56.78
2023-03-13T10:20:37.377Z,59.17
2023-03-13T10:21:41.693Z,54.89
2023-03-13T10:22:52.311Z,56.14
2023-03-13T10:24:05.462Z,58.67
2023-03-13T10:25:20.659Z,53.23
2023-03-13T10:26:26.735Z,58.13
2023-03-13T10:27:30.065Z,52.46
2023-03-13T10:28:33.448Z,54.19
2023-03-13T10:29:37.737Z,59.41
2023-03-13T10:30:43.875Z,58.11
2023-03-13T10:31:56.520Z,54.39
2023-03-13T10:33:01.069Z,51.54
2023-03-13T10:34:12.531Z,59.25
2023-03-13T10:35:23.576Z,58.43
2023-03-13T10:36:30.525Z,51.47
2023-03-13T10:37:42.516Z,53.28
2023-03-13T10:38:48.727Z,53.27
2023-03-13T10:39:53.182Z,58.38
2023-03-13T10:41:01.681Z,53.86
2023-03-13T10:42:23.482Z,55.54
2023-03-13T10:43:27.609Z,51.78
2023-03-13T10:44:33.887Z,51.30
2023-03-13T10:45:38.805Z,51.43
2023-03-13T10:46:44.607Z,51.76
2023-03-13T10:47:55.815Z,51.21
2023-03-13T10:49:01.991Z,51.67
2023-03-13T10:50:06.155Z,52.14
2023-03-13T10:51:12.319Z,52.47
2023-03-13T10:52:34.243Z,52.90
2023-03-13T10:53:37.127Z,52.38
2023-03-13T10:54:39.548Z,52.14
2023-03-13T10:55:44.089Z,50.97
2023-03-13T10:56:46.716Z,51.36
2023-03-13T10:58:04.974Z,51.55
2023-03-13T10:59:20.774Z,52.13
2023-03-13T11:00:38.388Z,52.28
2023-03-13T11:01:44.642Z,52.31
2023-03-13T11:02:47.693Z,52.86
2023-03-13T11:03:52.915Z,52.24
2023-03-13T11:04:56.857Z,52.62
2023-03-13T11:06:02.800Z,52.22
2023-03-13T11:07:15.700Z,50.19
2023-03-13T11:08:30.207Z,49.77
2023-03-13T11:09:32.913Z,51.49
2023-03-13T11:10:36.642Z,52.40
2023-03-13T11:11:55.503Z,51.75
2023-03-13T11:12:59.060Z,51.54
2023-03-13T11:14:19.668Z,51.98
2023-03-13T11:15:38.011Z,51.88
2023-03-13T11:16:45.251Z,50.98
2023-03-13T11:17:54.948Z,51.71
2023-03-13T11:19:31.856Z,51.04
2023-03-13T11:20:37.808Z,51.25
2023-03-13T11:21:57.910Z,52.84
2023-03-13T11:23:21.140Z,53.44
2023-03-13T11:24:51.417Z,52.72
2023-03-13T11:26:09.857Z,53.38
2023-03-13T11:27:38.511Z,53.38
2023-03-13T11:29:12.112Z,51.76
2023-03-13T11:30:36.378Z,50.54
2023-03-13T11:31:42.186Z,50.89
2023-03-13T11:32:57.512Z,50.67
2023-03-13T11:34:23.388Z,51.69
2023-03-13T11:35:44.796Z,51.59
2023-03-13T11:37:02.867Z,51.49
2023-03-13T11:38:21.102Z,51.51
2023-03-13T11:39:54.210Z,52.32
2023-03-13T11:41:35.511Z,52.41
2023-03-13T11:43:17.770Z,52.80
2023-03-13T11:44:15.922Z,52.85
2023-03-13T11:45:34.433Z,51.95
2023-03-13T11:46:46.452Z,52.28
2023-03-13T11:48:08.888Z,51.55
2023-03-13T11:49:18.073Z,51.44
2023-03-13T11:50:32.796Z,51.57
2023-03-13T11:52:09.099Z,50.65
2023-03-13T11:53:39.305Z,49.82
2023-03-13T11:54:54.533Z,50.33
2023-03-13T11:56:17.528Z,49.96
2023-03-13T11:57:38.720Z,48.83
2023-03-13T11:58:54.098Z,49.20
2023-03-13T12:00:23.057Z,50.03
2023-03-13T12:01:28.983Z,49.21
2023-03-13T12:02:35.146Z,50.40
2023-03-13T12:03:59.875Z,49.61
2023-03-13T12:05:06.837Z,49.28
2023-03-13T12:06:27.649Z,49.80
2023-03-13T12:07:30.584Z,50.49
2023-03-13T12:08:41.844Z,50.40
2023-03-13T12:09:55.530Z,50.19
2023-03-13T12:11:16.649Z,49.54
2023-03-13T12:12:23.104Z,49.80
2023-03-13T12:13:35.183Z,51.17
2023-03-13T12:14:42.149Z,50.66
2023-03-13T12:15:50.864Z,50.58
2023-03-13T12:16:57.343Z,50.18
2023-03-13T12:18:04.131Z,49.21
2023-03-13T12:19:11.215Z,48.94
2023-03-13T12:20:17.505Z,48.67
2023-03-13T12:21:30.079Z,48.43
2023-03-13T12:22:41.803Z,49.31
2023-03-13T12:23:47.881Z,49.18
2023-03-13T12:24:53.858Z,49.25
2023-03-13T12:26:16.457Z,48.95
2023-03-13T12:27:22.412Z,48.97
2023-03-13T12:28:52.556Z,48.99
2023-03-13T12:30:08.472Z,47.99
2023-03-13T12:31:22.968Z,48.57
2023-03-13T12:32:28.949Z,48.24
2023-03-13T12:33:37.639Z,48.16
2023-03-13T12:35:01.004Z,49.35
2023-03-13T12:36:19.432Z,50.14
2023-03-13T12:37:31.354Z,49.61
2023-03-13T12:40:13.650Z,47.85
2023-03-13T12:41:44.438Z,47.57
2023-03-13T12:42:54.145Z,47.50
2023-03-13T12:44:08.357Z,48.15
2023-03-13T12:46:08.139Z,47.10
2023-03-13T12:47:31.016Z,47.63
2023-03-13T12:48:37.855Z,48.67
2023-03-13T12:50:02.442Z,48.56
2023-03-13T12:51:39.196Z,48.95
2023-03-13T12:52:45.130Z,49.13
2023-03-13T12:54:10.797Z,48.69
2023-03-13T12:55:37.060Z,48.66
2023-03-13T12:57:04.986Z,48.67
2023-03-13T12:58:30.752Z,49.39
2023-03-13T12:59:36.667Z,49.59
2023-03-13T13:00:43.693Z,48.72
2023-03-13T13:01:49.673Z,48.90
2023-03-13T13:03:08.357Z,49.29
2023-03-13T13:04:17.514Z,50.70
2023-03-13T13:05:22.676Z,51.46
2023-03-13T13:06:26.872Z,50.50
2023-03-13T13:07:35.224Z,58.78
2023-03-13T13:08:43.934Z,52.86
2023-03-13T13:10:11.280Z,53.21
2023-03-13T13:11:47.703Z,49.18
2023-03-13T13:13:19.852Z,51.73
2023-03-13T13:14:32.089Z,48.26
2023-03-13T13:15:34.906Z,49.23
2023-03-13T13:16:41.401Z,53.01
2023-03-13T13:18:06.284Z,48.88
2023-03-13T13:19:27.131Z,51.05
2023-03-13T13:20:33.347Z,52.47
2023-03-13T13:21:37.426Z,56.15
2023-03-13T13:22:43.371Z,51.72
2023-03-13T13:23:47.680Z,52.23
2023-03-13T13:24:52.449Z,51.44
2023-03-13T13:25:56.236Z,52.53
2023-03-13T13:26:58.740Z,53.75
2023-03-13T13:28:23.009Z,51.68
2023-03-13T13:29:28.839Z,54.10
2023-03-13T13:30:32.381Z,50.15
2023-03-13T13:31:55.112Z,52.05
2023-03-13T13:33:18.033Z,52.78
2023-03-13T13:34:34.025Z,55.04
2023-03-13T13:35:36.891Z,52.31
2023-03-13T13:36:43.397Z,51.04
2023-03-13T13:37:49.338Z,51.56
2023-03-13T13:38:51.581Z,55.02
2023-03-13T13:39:56.912Z,51.31
2023-03-13T13:41:13.367Z,53.47
2023-03-13T13:42:39.844Z,50.04
2023-03-13T13:43:48.161Z,50.53
2023-03-13T13:45:17.290Z,55.88
2023-03-13T13:46:29.772Z,51.83
2023-03-13T13:47:33.779Z,55.47
2023-03-13T13:48:43.923Z,54.69
2023-03-13T13:49:55.554Z,54.82
2023-03-13T13:51:14.432Z,57.17
2023-03-13T13:52:20.142Z,53.00
2023-03-13T13:53:44.677Z,51.44
2023-03-13T13:54:56.208Z,55.55
2023-03-13T13:55:59.242Z,53.82
2023-03-13T13:57:12.322Z,50.83
2023-03-13T13:58:21.306Z,50.27
2023-03-13T13:59:33.423Z,51.24
2023-03-13T14:00:48.499Z,52.60
2023-03-13T14:02:10.356Z,53.44
2023-03-13T14:03:21.570Z,56.61
2023-03-13T14:04:30.268Z,53.21
2023-03-13T14:05:33.368Z,51.65
2023-03-13T14:06:38.523Z,55.51
2023-03-13T14:07:53.998Z,54.63
2023-03-13T14:09:00.410Z,55.47
2023-03-13T14:10:07.394Z,52.78
2023-03-13T14:11:32.732Z,56.77
2023-03-13T14:12:38.578Z,53.40
2023-03-13T14:13:42.512Z,55.02
2023-03-13T14:14:45.595Z,54.71
2023-03-13T14:15:52.385Z,53.79
2023-03-13T14:16:56.864Z,54.33
2023-03-13T14:18:22.752Z,57.83
2023-03-13T14:19:37.698Z,50.87
2023-03-13T14:20:52.962Z,51.91
2023-03-13T14:21:59.681Z,55.65
2023-03-13T14:23:07.402Z,52.74
2023-03-13T14:24:15.502Z,52.07
2023-03-13T14:25:19.891Z,50.73
2023-03-13T14:26:25.876Z,54.52
2023-03-13T14:27:28.629Z,54.52
2023-03-13T14:28:30.721Z,55.87
2023-03-13T14:29:36.479Z,53.19
2023-03-13T14:30:45.620Z,54.84
2023-03-13T14:31:53.955Z,58.89
2023-03-13T14:32:56.611Z,54.02
2023-03-13T14:34:03.701Z,51.94
2023-03-13T14:35:08.975Z,51.11
2023-03-13T14:36:12.011Z,51.07
2023-03-13T14:39:00.606Z,51.37
2023-03-13T14:40:27.780Z,57.47
2023-03-13T14:41:34.108Z,57.52
2023-03-13T14:42:42.852Z,50.47
2023-03-13T14:43:47.402Z,50.53
2023-03-13T14:44:50.604Z,51.36
2023-03-13T14:45:54.141Z,52.64
2023-03-13T14:46:59.980Z,53.23
2023-03-13T14:48:06.196Z,56.59
2023-03-13T14:49:21.023Z,58.10
2023-03-13T14:50:24.701Z,54.14
2023-03-13T14:51:28.659Z,60.41
2023-03-13T14:52:32.557Z,56.56
2023-03-13T14:53:36.193Z,57.05
2023-03-13T14:54:54.017Z,55.04
2023-03-13T14:57:27.108Z,53.44
2023-03-13T14:58:30.191Z,55.71
2023-03-13T14:59:33.532Z,54.04
2023-03-13T15:00:39.589Z,53.39
2023-03-13T15:01:42.170Z,53.24
2023-03-13T15:02:45.022Z,53.35
2023-03-13T15:03:47.405Z,56.76
2023-03-13T15:04:57.384Z,55.90
2023-03-13T15:06:16.388Z,60.61
2023-03-13T15:07:19.878Z,61.14
2023-03-13T15:08:25.688Z,56.76
2023-03-13T15:09:28.157Z,56.29